Mercury, NV

4:10 PM PDT on August 27, 2015 (GMT -0700)
MesoWest | | Change Station
CLOSE
Current Station
Personal Weather Station
Location: Mercury, NV
Elevation: 3678 ft
Nearby Weather Stations

Elev 3678 ft 36.66 °N, 116.00 °W | Updated 40 minutes ago

Clear
Clear
93 °F
Feels Like 89 °F
N
7
Wind Variable Wind from NNE
Gusts 13.0 mph

Today
High -- | Low -- °F
--% Chance of Precip.
Yesterday
High -- | Low -- °F
Precip. -- in
6:11 AM 7:19 PM
Waxing Gibbous, 95% visible
Pressure 29.87 in
Visibility 10.0 miles
Clouds Few 11000 ft
Heat Index 89 °F
Dew Point 43 °F
Humidity 18%
Rainfall in
Snow Depth Not available.
UV 5 out of 12
Pollen 5.60 out of 12
Air Quality Not available.
Flu Activity Not available.
METAR KDRA 272253Z AUTO 12009KT 10SM FEW110 36/07 A3003 RMK AO2 SLP115 T03560072 $
Pressure 29.87 in
Visibility 10.0 miles
Clouds Few 11000 ft
Heat Index 89 °F
Dew Point 43 °F
Humidity 18%
Rainfall in
Snow Depth Not available.
UV 5 out of 12
Pollen 5.60 out of 12
Air Quality Not available.
Flu Activity Not available.
METAR KDRA 272253Z AUTO 12009KT 10SM FEW110 36/07 A3003 RMK AO2 SLP115 T03560072 $

10-Day Weather Forecast

×

Almanac

Astronomy

Aug. 27, 2015 Rise Set
Actual Time
Civil Twilight
Nautical Twilight
Astronomical Twilight
Moon
Length of Visible Light
Length of Day
Tomorrow will be .
, % of the Moon is Illuminated

Today's Extremes

State Highs State Lows

Community

WunderPhotos

Upload Photos

1,850,258 photos uploaded!

WunderBlogs® & News

Nearby

Air Quality

  Air Quality AQ Index Pollutant
Not available.

Snow Depth

Station Depth Elevation

Earthquake Activity

City Distance Mag. Time & Date
Minimum magnitude displayed is 2.5.

Coastal Water Temperatures

Place Temperature

Stations

Nearby Weather Stations

Station Location Temp. Windchill Dew Point Humidity Wind Precip. Elev Updated Type